createdAt,value
2022-08-12T00:01:12.921Z,98367.31
2022-08-12T00:03:59.621Z,98365.13
2022-08-12T00:06:48.157Z,98371.91
2022-08-12T00:09:34.500Z,98365.41
2022-08-12T00:12:21.904Z,98371.56
2022-08-12T00:15:08.230Z,98372.66
2022-08-12T00:17:54.501Z,98365.66
2022-08-12T00:20:40.632Z,98375.38
2022-08-12T00:23:27.290Z,98371.56
2022-08-12T00:26:21.160Z,98366.69
2022-08-12T00:29:12.187Z,98373.69
2022-08-12T00:32:00.378Z,98370.47
2022-08-12T00:34:49.474Z,98366.38
2022-08-12T00:37:38.151Z,98365.03
2022-08-12T00:40:27.160Z,98367.72
2022-08-12T00:42:56.609Z,98365.84
2022-08-12T00:45:24.440Z,98368.53
2022-08-12T00:47:53.388Z,98369.81
2022-08-12T00:50:23.791Z,98367.59
2022-08-12T00:52:53.138Z,98372.69
2022-08-12T00:55:21.567Z,98363.84
2022-08-12T00:57:50.984Z,98362.72
2022-08-12T01:00:22.181Z,98353.81
2022-08-12T01:02:52.699Z,98355.63
2022-08-12T01:05:42.839Z,98354.22
2022-08-12T01:08:29.121Z,98352.06
2022-08-12T01:11:16.011Z,98347.19
2022-08-12T01:13:48.112Z,98356.34
2022-08-12T01:16:19.902Z,98357.38
2022-08-12T01:18:47.881Z,98351.47
2022-08-12T01:21:27.836Z,98356.53
2022-08-12T01:24:31.297Z,98357.03
2022-08-12T01:27:07.641Z,98350.56
2022-08-12T01:29:44.123Z,98355.13
2022-08-12T01:32:17.425Z,98355.66
2022-08-12T01:34:52.985Z,98348.88
2022-08-12T01:37:24.583Z,98345.38
2022-08-12T01:40:31.379Z,98348.31
2022-08-12T01:42:52.240Z,98340.75
2022-08-12T01:45:24.870Z,98344.53
2022-08-12T01:48:08.245Z,98342.09
2022-08-12T01:50:55.158Z,98336.94
2022-08-12T01:53:50.163Z,98340.97
2022-08-12T01:56:24.599Z,98332.59
2022-08-12T01:59:16.219Z,98333.66
2022-08-12T02:01:48.084Z,98330.97
2022-08-12T02:05:10.697Z,98332.81
2022-08-12T02:08:08.168Z,98331.22
2022-08-12T02:11:18.194Z,98322.03
2022-08-12T02:14:06.540Z,98323.88
2022-08-12T02:16:51.275Z,98320.59
2022-08-12T02:19:47.354Z,98320.88
2022-08-12T02:22:30.488Z,98312.00
2022-08-12T02:25:15.808Z,98309.53
2022-08-12T02:27:49.708Z,98301.75
2022-08-12T02:30:20.577Z,98304.94
2022-08-12T02:32:51.899Z,98308.38
2022-08-12T02:35:23.143Z,98305.38
2022-08-12T02:37:53.117Z,98307.50
2022-08-12T02:40:21.974Z,98306.97
2022-08-12T02:43:07.995Z,98315.28
2022-08-12T02:45:42.418Z,98311.50
2022-08-12T02:48:15.348Z,98319.84
2022-08-12T02:50:50.476Z,98311.72
2022-08-12T02:53:19.277Z,98315.19
2022-08-12T02:55:47.030Z,98310.22
2022-08-12T02:58:15.587Z,98304.25
2022-08-12T03:00:48.752Z,98303.91
2022-08-12T03:03:19.594Z,98299.97
2022-08-12T03:06:21.456Z,98307.25
2022-08-12T03:08:53.706Z,98310.44
2022-08-12T03:11:47.759Z,98318.91
2022-08-12T03:14:20.439Z,98327.97
2022-08-12T03:16:55.157Z,98312.84
2022-08-12T03:19:24.895Z,98326.78
2022-08-12T03:22:08.932Z,98321.09
2022-08-12T03:24:39.359Z,98320.22
2022-08-12T03:27:09.826Z,98316.72
2022-08-12T03:29:45.163Z,98323.69
2022-08-12T03:32:36.139Z,98322.91
2022-08-12T03:35:08.010Z,98318.59
2022-08-12T03:37:37.713Z,98316.72
2022-08-12T03:40:08.939Z,98319.81
2022-08-12T03:43:05.287Z,98320.13
2022-08-12T03:45:53.008Z,98320.13
2022-08-12T03:48:39.828Z,98319.31
2022-08-12T03:51:26.571Z,98318.50
2022-08-12T03:54:13.068Z,98325.28
2022-08-12T03:56:59.366Z,98319.31
2022-08-12T03:59:45.623Z,98324.66
2022-08-12T04:02:17.149Z,98327.41
2022-08-12T04:04:49.362Z,98325.97
2022-08-12T04:07:17.396Z,98326.81
2022-08-12T04:09:46.656Z,98325.00
2022-08-12T04:12:33.429Z,98323.09
2022-08-12T04:15:02.008Z,98328.25
2022-08-12T04:17:30.326Z,98330.81
2022-08-12T04:19:59.096Z,98330.94
2022-08-12T04:22:29.925Z,98332.88
2022-08-12T04:25:01.593Z,98331.53
2022-08-12T04:27:31.867Z,98328.47
2022-08-12T04:30:31.510Z,98325.63
2022-08-12T04:32:51.149Z,98323.63
2022-08-12T04:35:21.056Z,98329.34
2022-08-12T04:37:58.648Z,98315.53
2022-08-12T04:40:31.013Z,98315.34
2022-08-12T04:43:01.573Z,98319.38
2022-08-12T04:45:31.314Z,98322.78
2022-08-12T04:47:59.453Z,98325.09
2022-08-12T04:50:36.275Z,98326.34
2022-08-12T04:53:09.227Z,98330.16
2022-08-12T04:55:42.617Z,98326.97
2022-08-12T04:58:10.560Z,98317.84
2022-08-12T05:00:38.622Z,98310.81
2022-08-12T05:03:07.553Z,98315.81
2022-08-12T05:05:37.054Z,98308.97
2022-08-12T05:08:07.035Z,98312.44
2022-08-12T05:10:35.737Z,98326.25
2022-08-12T05:13:14.458Z,98329.09
2022-08-12T05:16:03.618Z,98326.44
2022-08-12T05:18:31.580Z,98331.88
2022-08-12T05:20:59.555Z,98326.78
2022-08-12T05:23:27.816Z,98330.81
2022-08-12T05:25:57.290Z,98318.41
2022-08-12T05:28:27.344Z,98322.13
2022-08-12T05:30:56.759Z,98329.69
2022-08-12T05:33:33.343Z,98318.97
2022-08-12T05:36:01.156Z,98323.38
2022-08-12T05:38:46.987Z,98323.34
2022-08-12T05:41:20.805Z,98332.22
2022-08-12T05:43:51.379Z,98333.50
2022-08-12T05:46:20.791Z,98329.03
2022-08-12T05:48:50.075Z,98331.53
2022-08-12T05:51:19.086Z,98338.13
2022-08-12T05:53:46.867Z,98341.44
2022-08-12T05:56:22.318Z,98349.13
2022-08-12T05:58:51.732Z,98351.03
2022-08-12T06:02:12.642Z,98340.81
2022-08-12T06:04:13.450Z,98361.66
2022-08-12T06:06:42.408Z,98357.22
2022-08-12T06:09:11.533Z,98364.03
2022-08-12T06:11:53.641Z,98362.88
2022-08-12T06:14:29.258Z,98364.50
2022-08-12T06:16:57.847Z,98366.75
2022-08-12T06:20:27.771Z,98367.94
2022-08-12T06:22:15.507Z,98380.72
2022-08-12T06:24:42.925Z,98381.31
2022-08-12T06:27:10.735Z,98380.78
2022-08-12T06:30:08.522Z,98383.50
2022-08-12T06:32:28.240Z,98386.09
2022-08-12T06:35:24.895Z,98377.44
2022-08-12T06:37:51.478Z,98374.25
2022-08-12T06:40:43.952Z,98380.88
2022-08-12T06:43:13.315Z,98382.44
2022-08-12T06:45:47.457Z,98377.84
2022-08-12T06:48:15.284Z,98382.34
2022-08-12T06:50:44.581Z,98381.28
2022-08-12T06:53:12.762Z,98380.72
2022-08-12T06:55:58.205Z,98383.28
2022-08-12T06:58:31.186Z,98385.16
2022-08-12T07:01:00.324Z,98393.25
2022-08-12T07:03:28.768Z,98391.00
2022-08-12T07:06:01.506Z,98389.34
2022-08-12T07:08:32.026Z,98392.00
2022-08-12T07:11:05.697Z,98378.03
2022-08-12T07:14:12.650Z,98387.91
2022-08-12T07:16:50.172Z,98374.03
2022-08-12T07:19:19.287Z,98374.44
2022-08-12T07:22:00.439Z,98380.09
2022-08-12T07:24:30.771Z,98383.78
2022-08-12T07:26:59.211Z,98393.97
2022-08-12T07:30:03.983Z,98388.19
2022-08-12T07:32:16.063Z,98401.59
2022-08-12T07:34:43.593Z,98400.03
2022-08-12T07:37:11.178Z,98398.00
2022-08-12T07:39:51.303Z,98392.13
2022-08-12T07:42:26.630Z,98396.31
2022-08-12T07:44:55.372Z,98393.78
2022-08-12T07:47:23.337Z,98389.63
2022-08-12T07:50:04.803Z,98388.75
2022-08-12T07:52:35.686Z,98382.84
2022-08-12T07:55:04.297Z,98386.22
2022-08-12T07:57:34.791Z,98387.28
2022-08-12T08:00:06.631Z,98385.31
2022-08-12T08:02:37.774Z,98376.53
2022-08-12T08:05:05.986Z,98373.94
2022-08-12T08:07:33.575Z,98376.81
2022-08-12T08:10:05.146Z,98387.97
2022-08-12T08:12:51.121Z,98386.00
2022-08-12T08:15:20.970Z,98381.97
2022-08-12T08:18:03.253Z,98381.59
2022-08-12T08:20:38.316Z,98372.09
2022-08-12T08:23:12.514Z,98384.41
2022-08-12T08:25:41.498Z,98387.75
2022-08-12T08:28:19.044Z,98391.31
2022-08-12T08:30:47.965Z,98388.78
2022-08-12T08:33:23.770Z,98393.78
2022-08-12T08:36:07.585Z,98381.97
2022-08-12T08:38:57.686Z,98391.59
2022-08-12T08:42:19.273Z,98385.16
2022-08-12T08:44:39.682Z,98396.31
2022-08-12T08:47:07.874Z,98383.22
2022-08-12T08:49:37.410Z,98388.31
2022-08-12T08:52:06.764Z,98391.09
2022-08-12T08:54:34.582Z,98387.53
2022-08-12T08:57:05.646Z,98382.56
2022-08-12T08:59:33.107Z,98376.16
2022-08-12T09:02:01.278Z,98374.03
2022-08-12T09:05:13.407Z,98369.47
2022-08-12T09:07:51.859Z,98366.63
2022-08-12T09:10:15.589Z,98362.19
2022-08-12T09:13:23.438Z,98361.44
2022-08-12T09:15:57.766Z,98355.50
2022-08-12T09:18:33.345Z,98354.66
2022-08-12T09:21:15.904Z,98356.69
2022-08-12T09:23:59.535Z,98347.91
2022-08-12T09:26:31.761Z,98342.34
2022-08-12T09:29:12.248Z,98343.47
2022-08-12T09:32:06.296Z,98365.91
2022-08-12T09:34:37.904Z,98342.78
2022-08-12T09:37:18.556Z,98345.59
2022-08-12T09:40:05.244Z,98347.72
2022-08-12T09:43:15.284Z,98341.97
2022-08-12T09:46:20.004Z,98356.72
2022-08-12T09:48:35.103Z,98345.56
2022-08-12T09:51:16.782Z,98344.34
2022-08-12T09:54:08.951Z,98337.91
2022-08-12T09:57:02.616Z,98337.13
2022-08-12T10:00:17.507Z,98343.81
2022-08-12T10:02:42.973Z,98348.69
2022-08-12T10:05:05.415Z,98347.72
2022-08-12T10:07:40.492Z,98347.69
2022-08-12T10:10:24.025Z,98333.28
2022-08-12T10:13:35.078Z,98319.91
2022-08-12T10:16:21.794Z,98328.91
2022-08-12T10:18:55.648Z,98304.84
2022-08-12T10:21:36.150Z,98322.78
2022-08-12T10:24:07.510Z,98307.97
2022-08-12T10:26:55.923Z,98301.00
2022-08-12T10:30:03.578Z,98320.88
2022-08-12T10:32:44.183Z,98293.59
2022-08-12T10:35:16.118Z,98302.97
2022-08-12T10:38:35.575Z,98310.19
2022-08-12T10:40:37.642Z,98298.28
2022-08-12T10:43:24.071Z,98292.81
2022-08-12T10:45:57.223Z,98297.13
2022-08-12T10:48:34.231Z,98286.13
2022-08-12T10:51:18.160Z,98298.19
2022-08-12T10:54:00.442Z,98282.25
2022-08-12T10:56:34.937Z,98285.19
2022-08-12T11:00:33.953Z,98286.59
2022-08-12T11:04:19.666Z,98275.84
2022-08-12T11:07:09.011Z,98267.47
2022-08-12T11:08:38.022Z,98276.41
2022-08-12T11:11:13.679Z,98256.88
2022-08-12T11:13:48.796Z,98255.34
2022-08-12T11:16:22.643Z,98251.72
2022-08-12T11:18:55.238Z,98266.97
2022-08-12T11:21:31.067Z,98256.56
2022-08-12T11:24:30.057Z,98270.47
2022-08-12T11:27:07.638Z,98254.19
2022-08-12T11:30:06.469Z,98248.72
2022-08-12T11:32:24.695Z,98276.13
2022-08-12T11:34:54.826Z,98263.63
2022-08-12T11:37:26.267Z,98253.19
2022-08-12T11:40:11.836Z,98246.66
2022-08-12T11:42:46.332Z,98237.00
2022-08-12T11:45:16.409Z,98241.28
2022-08-12T11:47:45.021Z,98249.06
2022-08-12T11:50:19.310Z,98227.38
2022-08-12T11:52:55.887Z,98259.09
2022-08-12T11:55:25.550Z,98229.75
2022-08-12T11:58:19.841Z,98235.53
2022-08-12T12:03:43.992Z,98218.50
2022-08-12T12:06:16.859Z,98220.13
2022-08-12T12:08:51.004Z,98237.19
2022-08-12T12:11:19.455Z,98226.09
2022-08-12T12:14:07.881Z,98225.47
2022-08-12T12:16:38.002Z,98225.72
2022-08-12T12:19:06.060Z,98231.69
2022-08-12T12:21:47.557Z,98224.72
2022-08-12T12:24:21.037Z,98232.94
2022-08-12T12:27:00.913Z,98231.69
2022-08-12T12:30:19.044Z,98217.72
2022-08-12T12:32:28.916Z,98206.56
2022-08-12T12:35:44.484Z,98217.16
2022-08-12T12:38:05.421Z,98209.56
2022-08-12T12:40:43.763Z,98228.69
2022-08-12T12:43:13.975Z,98210.53
2022-08-12T12:45:44.506Z,98201.38
2022-08-12T12:48:19.407Z,98213.75
2022-08-12T12:51:12.279Z,98208.81
2022-08-12T12:54:08.716Z,98210.25
2022-08-12T12:56:42.340Z,98214.31
2022-08-12T12:59:54.449Z,98210.50
2022-08-12T13:02:07.809Z,98213.38
2022-08-12T13:04:37.815Z,98203.59
2022-08-12T13:07:06.871Z,98207.25
2022-08-12T13:09:36.360Z,98197.88
2022-08-12T13:12:09.186Z,98192.09
2022-08-12T13:14:39.865Z,98191.47
2022-08-12T13:17:14.747Z,98190.81
2022-08-12T13:19:46.986Z,98186.16
2022-08-12T13:22:23.783Z,98197.59
2022-08-12T13:24:55.803Z,98181.53
2022-08-12T13:27:41.667Z,98180.88
2022-08-12T13:30:24.934Z,98178.59
2022-08-12T13:33:00.045Z,98179.44
2022-08-12T13:36:05.622Z,98172.41
2022-08-12T13:38:35.581Z,98182.72
2022-08-12T13:41:03.879Z,98172.34
2022-08-12T13:43:41.028Z,98181.19
2022-08-12T13:46:13.557Z,98167.22
2022-08-12T13:48:44.928Z,98178.97
2022-08-12T13:51:14.349Z,98161.47
2022-08-12T13:53:58.411Z,98154.56
2022-08-12T13:56:34.630Z,98149.72
2022-08-12T13:59:08.621Z,98170.78
2022-08-12T14:01:40.451Z,98158.88
2022-08-12T14:04:12.282Z,98155.97
2022-08-12T14:06:41.087Z,98145.84
2022-08-12T14:09:17.632Z,98144.09
2022-08-12T14:11:51.341Z,98128.56
2022-08-12T14:14:27.327Z,98128.13
2022-08-12T14:16:55.355Z,98122.06
2022-08-12T14:19:25.164Z,98138.19
2022-08-12T14:22:01.154Z,98128.22
2022-08-12T14:24:40.616Z,98128.25
2022-08-12T14:27:12.878Z,98146.97
2022-08-12T14:30:04.105Z,98151.66
2022-08-12T14:32:35.521Z,98133.50
2022-08-12T14:35:09.367Z,98170.59
2022-08-12T14:37:56.073Z,98137.25
2022-08-12T14:40:29.504Z,98140.00
2022-08-12T14:43:00.316Z,98135.50
2022-08-12T14:45:45.273Z,98151.03
2022-08-12T14:48:24.165Z,98138.38
2022-08-12T14:51:02.649Z,98138.69
2022-08-12T14:59:57.568Z,98133.66
2022-08-12T15:02:23.631Z,98123.34
2022-08-12T15:04:59.327Z,98117.09
2022-08-12T15:07:33.786Z,98113.22
2022-08-12T15:10:25.444Z,98115.97
2022-08-12T15:13:05.441Z,98128.19
2022-08-12T15:15:43.974Z,98108.25
2022-08-12T15:18:21.791Z,98105.84
2022-08-12T15:20:52.445Z,98119.16
2022-08-12T15:23:24.555Z,98097.63
2022-08-12T15:26:05.090Z,98105.22
2022-08-12T15:28:35.482Z,98101.66
2022-08-12T15:31:21.698Z,98116.31
2022-08-12T15:33:54.105Z,98109.38
2022-08-12T15:36:53.555Z,98106.19
2022-08-12T15:39:17.023Z,98110.66
2022-08-12T15:41:49.110Z,98101.31
2022-08-12T15:44:38.090Z,98099.56
2022-08-12T15:47:07.747Z,98110.84
2022-08-12T15:49:54.963Z,98101.97
2022-08-12T15:52:27.280Z,98104.69
2022-08-12T15:54:58.424Z,98101.44
2022-08-12T15:57:33.537Z,98099.03
2022-08-12T16:00:07.480Z,98103.75
2022-08-12T16:02:50.231Z,98101.31
2022-08-12T16:06:19.016Z,98096.53
2022-08-12T16:08:18.488Z,98109.69
2022-08-12T16:10:47.958Z,98114.59
2022-08-12T16:13:25.135Z,98113.09
2022-08-12T16:16:03.851Z,98101.13
2022-08-12T16:18:37.476Z,98106.47
2022-08-12T16:21:10.647Z,98100.63
2022-08-12T16:23:58.293Z,98098.59
2022-08-12T16:26:27.544Z,98099.28
2022-08-12T16:29:14.542Z,98098.66
2022-08-12T16:31:44.993Z,98114.66
2022-08-12T16:34:40.118Z,98094.63
2022-08-12T16:37:08.784Z,98090.34
2022-08-12T16:39:59.466Z,98102.06
2022-08-12T16:42:28.147Z,98089.38
2022-08-12T16:45:03.096Z,98093.69
2022-08-12T16:47:58.823Z,98086.47
2022-08-12T16:50:19.676Z,98085.78
2022-08-12T16:52:48.953Z,98093.47
2022-08-12T16:55:18.779Z,98085.72
2022-08-12T16:57:49.368Z,98095.69
2022-08-12T17:00:18.755Z,98084.13
2022-08-12T17:02:56.431Z,98075.63
2022-08-12T17:05:31.161Z,98080.91
2022-08-12T17:08:00.765Z,98075.16
2022-08-12T17:10:35.929Z,98067.28
2022-08-12T17:13:09.939Z,98070.66
2022-08-12T17:15:56.867Z,98063.28
2022-08-12T17:18:43.026Z,98065.22
2022-08-12T17:21:19.534Z,98063.16
2022-08-12T17:23:52.984Z,98058.19
2022-08-12T17:26:31.026Z,98060.41
2022-08-12T17:29:00.714Z,98059.13
2022-08-12T17:32:01.372Z,98060.75
2022-08-12T17:34:38.310Z,98068.09
2022-08-12T17:37:07.394Z,98054.63
2022-08-12T17:40:13.723Z,98069.72
2022-08-12T17:42:35.039Z,98064.69
2022-08-12T17:45:17.799Z,98073.75
2022-08-12T17:48:00.780Z,98071.94
2022-08-12T17:50:45.473Z,98073.94
2022-08-12T17:53:16.209Z,98075.56
2022-08-12T17:55:50.134Z,98067.25
2022-08-12T17:58:35.798Z,98072.13
2022-08-12T18:01:11.019Z,98074.97
2022-08-12T18:04:04.397Z,98078.81
2022-08-12T18:06:28.600Z,98081.75
2022-08-12T18:08:59.459Z,98079.72
2022-08-12T18:12:06.224Z,98082.09
2022-08-12T18:14:36.940Z,98081.94
2022-08-12T18:17:08.650Z,98081.59
2022-08-12T18:20:05.385Z,98086.59
2022-08-12T18:22:30.446Z,98090.84
2022-08-12T18:25:04.003Z,98091.69
2022-08-12T18:27:45.880Z,98091.78
2022-08-12T18:30:28.933Z,98096.72
2022-08-12T18:33:05.212Z,98099.19
2022-08-12T18:35:47.353Z,98105.25
2022-08-12T18:38:25.234Z,98104.44
2022-08-12T18:41:21.117Z,98102.25
2022-08-12T18:44:04.803Z,98111.16
2022-08-12T18:46:45.967Z,98105.81
2022-08-12T18:49:35.055Z,98108.03
2022-08-12T18:52:08.066Z,98115.38
2022-08-12T18:54:49.344Z,98116.09
2022-08-12T18:58:06.858Z,98113.38
2022-08-12T19:00:22.200Z,98109.75
2022-08-12T19:02:53.272Z,98116.41
2022-08-12T19:05:23.490Z,98120.03
2022-08-12T19:08:12.090Z,98112.16
2022-08-12T19:10:42.846Z,98118.91
2022-08-12T19:13:37.751Z,98129.34
2022-08-12T19:16:10.945Z,98128.78
2022-08-12T19:18:44.485Z,98120.81
2022-08-12T19:21:16.056Z,98126.50
2022-08-12T19:24:04.944Z,98128.16
2022-08-12T19:26:35.152Z,98131.31
2022-08-12T19:29:05.738Z,98131.97
2022-08-12T19:31:57.241Z,98123.38
2022-08-12T19:38:04.398Z,98128.38
2022-08-12T19:40:32.655Z,98130.03
2022-08-12T19:43:20.206Z,98129.00
2022-08-12T19:45:56.613Z,98127.84
2022-08-12T19:48:30.832Z,98127.03
2022-08-12T19:51:24.292Z,98132.81
2022-08-12T19:53:57.236Z,98126.34
2022-08-12T19:56:30.249Z,98128.31
2022-08-12T19:59:18.749Z,98130.31
2022-08-12T20:02:02.936Z,98127.44
2022-08-12T20:04:39.047Z,98126.91
2022-08-12T20:07:23.997Z,98125.94
2022-08-12T20:09:53.857Z,98127.91
2022-08-12T20:12:31.710Z,98134.50
2022-08-12T20:15:05.050Z,98127.25
2022-08-12T20:17:36.431Z,98131.38
2022-08-12T20:20:21.234Z,98127.41
2022-08-12T20:22:57.299Z,98131.56
2022-08-12T20:25:27.973Z,98125.06
2022-08-12T20:28:04.104Z,98128.13
2022-08-12T20:30:52.580Z,98121.38
2022-08-12T20:33:32.777Z,98124.13
2022-08-12T20:36:42.291Z,98124.69
2022-08-12T20:39:04.459Z,98122.78
2022-08-12T20:41:33.470Z,98121.19
2022-08-12T20:44:00.958Z,98113.00
2022-08-12T20:46:33.059Z,98111.69
2022-08-12T20:49:14.672Z,98107.66
2022-08-12T20:51:54.907Z,98112.34
2022-08-12T20:54:32.685Z,98117.31
2022-08-12T20:57:08.787Z,98118.81
2022-08-12T20:59:47.654Z,98119.66
2022-08-12T21:02:16.332Z,98124.53
2022-08-12T21:05:16.430Z,98127.53
2022-08-12T21:07:52.282Z,98121.38
2022-08-12T21:10:21.367Z,98116.53
2022-08-12T21:12:54.698Z,98129.78
2022-08-12T21:15:30.721Z,98126.84
2022-08-12T21:18:29.000Z,98124.66
2022-08-12T21:20:59.098Z,98131.75
2022-08-12T21:23:30.999Z,98133.66
2022-08-12T21:26:11.351Z,98129.59
2022-08-12T21:28:56.714Z,98130.97
2022-08-12T21:32:40.889Z,98127.72
2022-08-12T21:34:21.414Z,98125.56
2022-08-12T21:36:53.628Z,98135.34
2022-08-12T21:39:35.827Z,98124.78
2022-08-12T21:42:07.238Z,98120.81
2022-08-12T21:45:48.078Z,98117.84
2022-08-12T21:47:26.247Z,98119.78
2022-08-12T21:50:03.427Z,98123.31
2022-08-12T21:52:40.972Z,98117.16
2022-08-12T21:55:18.118Z,98113.38
2022-08-12T21:57:54.025Z,98123.66
2022-08-12T22:00:32.977Z,98120.44
2022-08-12T22:04:10.891Z,98116.69
2022-08-12T22:06:20.089Z,98113.75
2022-08-12T22:09:01.955Z,98115.09
2022-08-12T22:11:42.432Z,98118.06
2022-08-12T22:14:21.796Z,98120.75
2022-08-12T22:16:54.218Z,98130.22
2022-08-12T22:19:22.940Z,98122.09
2022-08-12T22:21:53.789Z,98122.09
2022-08-12T22:24:26.681Z,98128.31
2022-08-12T22:27:18.323Z,98121.84
2022-08-12T22:30:09.482Z,98124.56
2022-08-12T22:32:51.563Z,98126.75
2022-08-12T22:35:55.679Z,98118.38
2022-08-12T22:38:25.440Z,98119.47
2022-08-12T22:40:57.553Z,98119.78
2022-08-12T22:43:58.955Z,98123.03
2022-08-12T22:46:52.957Z,98120.84
2022-08-12T22:49:37.026Z,98107.34
2022-08-12T22:52:18.742Z,98117.34
2022-08-12T22:55:03.693Z,98120.34
2022-08-12T22:57:49.783Z,98119.25
2022-08-12T23:00:23.953Z,98124.91
2022-08-12T23:02:59.359Z,98127.34
2022-08-12T23:05:56.685Z,98121.16
2022-08-12T23:08:29.799Z,98119.25
2022-08-12T23:11:06.001Z,98122.75
2022-08-12T23:13:47.378Z,98120.84
2022-08-12T23:16:29.265Z,98117.91
2022-08-12T23:19:10.729Z,98115.50
2022-08-12T23:22:04.092Z,98121.16
2022-08-12T23:24:56.204Z,98123.84
2022-08-12T23:27:51.064Z,98121.16
2022-08-12T23:30:31.649Z,98116.28
2022-08-12T23:33:13.006Z,98116.53
2022-08-12T23:35:59.079Z,98111.16
2022-08-12T23:38:33.091Z,98113.59
2022-08-12T23:41:03.636Z,98103.88
2022-08-12T23:43:39.975Z,98105.28
2022-08-12T23:46:18.678Z,98116.09
2022-08-12T23:48:50.554Z,98117.72
2022-08-12T23:51:26.840Z,98116.09
2022-08-12T23:54:04.216Z,98105.56
2022-08-12T23:56:35.211Z,98108.28
2022-08-12T23:59:07.320Z,98105.28
